Time;durP1;ratioP1;P1;durP2;ratioP2;P2;SDS_P1;SDS_P2;PMS_P1;PMS_P2;Temp;Humidity;BMP_temperature;BMP_pressure;BME280_temperature;BME280_humidity;BME280_pressure;Samples;Min_cycle;Max_cycle;Signal;HPM_P1;HPM_P2
2021/06/14 00:02:07;;;;;;;11.45;5.20;;;16.20;25.20;;;;;;5009697;28;20517;-78
2021/06/14 00:04:33;;;;;;;9.73;5.03;;;16.10;25.70;;;;;;5008902;28;20394;-79
2021/06/14 00:06:59;;;;;;;11.82;5.80;;;16.00;25.90;;;;;;5009357;28;20461;-80
2021/06/14 00:09:25;;;;;;;11.13;5.32;;;15.90;26.10;;;;;;5024773;28;20396;-81
2021/06/14 00:11:52;;;;;;;11.02;5.00;;;15.90;26.00;;;;;;5022172;28;20390;-79
2021/06/14 00:14:19;;;;;;;11.57;5.45;;;16.00;25.50;;;;;;5011850;28;20395;-79
2021/06/14 00:16:46;;;;;;;9.70;5.60;;;15.90;26.10;;;;;;5007392;28;20501;-80
2021/06/14 00:19:11;;;;;;;11.30;5.20;;;15.80;26.60;;;;;;5002999;28;20398;-80
2021/06/14 00:25:00;;;;;;;9.30;5.30;;;15.70;27.80;;;;;;5003307;28;20374;-80
2021/06/14 00:27:25;;;;;;;11.70;6.30;;;15.60;28.00;;;;;;4983177;28;20391;-79
2021/06/14 00:29:51;;;;;;;12.55;5.30;;;15.50;28.60;;;;;;5006004;28;20387;-80
2021/06/14 00:32:16;;;;;;;11.40;6.00;;;15.50;29.30;;;;;;4988879;28;20385;-80
2021/06/14 00:34:42;;;;;;;11.43;5.97;;;15.40;30.10;;;;;;5023866;28;20388;-80
2021/06/14 00:37:08;;;;;;;13.00;6.30;;;15.30;31.10;;;;;;5007966;28;20408;-81
2021/06/14 00:39:33;;;;;;;11.43;6.05;;;15.20;31.30;;;;;;5002755;28;20396;-81
2021/06/14 00:41:59;;;;;;;13.87;6.07;;;15.20;31.90;;;;;;5000801;28;20396;-82
2021/06/14 00:44:25;;;;;;;12.27;5.73;;;15.20;32.10;;;;;;4996862;28;20417;-81
2021/06/14 00:46:50;;;;;;;12.00;5.57;;;15.10;32.20;;;;;;4997579;28;20402;-81
2021/06/14 00:49:16;;;;;;;11.43;6.00;;;15.00;32.80;;;;;;4997188;28;20390;-81
2021/06/14 00:51:42;;;;;;;9.03;5.93;;;15.00;33.20;;;;;;4997162;28;20931;-82
2021/06/14 00:54:07;;;;;;;11.35;6.18;;;14.90;33.80;;;;;;4997024;28;20502;-81
2021/06/14 00:56:33;;;;;;;10.18;5.93;;;14.90;34.30;;;;;;4995896;28;20414;-81
2021/06/14 00:58:59;;;;;;;9.23;5.95;;;14.90;34.60;;;;;;4979446;28;20426;-80
2021/06/14 01:01:25;;;;;;;12.13;6.25;;;14.80;34.70;;;;;;4997286;28;20386;-80
2021/06/14 01:03:50;;;;;;;10.73;6.20;;;14.80;35.10;;;;;;4997055;28;20402;-81
2021/06/14 01:06:16;;;;;;;8.43;5.93;;;14.70;35.50;;;;;;4979364;28;20415;-81
2021/06/14 01:08:45;;;;;;;13.27;6.40;;;14.70;35.90;;;;;;5003024;28;20400;-81
2021/06/14 01:11:30;;;;;;;10.20;5.65;;;14.70;35.90;;;;;;5017015;28;20385;-81
2021/06/14 01:14:10;;;;;;;8.52;5.65;;;14.70;35.80;;;;;;5017312;28;20388;-81
2021/06/14 01:16:36;;;;;;;14.05;6.07;;;14.70;35.90;;;;;;5017847;28;20421;-80
2021/06/14 01:19:31;;;;;;;10.90;5.63;;;14.60;35.70;;;;;;5017722;28;20381;-80
2021/06/14 01:22:09;;;;;;;12.90;6.10;;;14.70;35.60;;;;;;5002129;28;20397;-79
2021/06/14 01:24:59;;;;;;;11.35;5.47;;;14.70;35.90;;;;;;5018637;28;20450;-81
2021/06/14 01:27:43;;;;;;;14.05;5.70;;;14.60;35.90;;;;;;5012537;28;20389;-80
2021/06/14 01:30:12;;;;;;;11.23;5.40;;;14.60;36.30;;;;;;5030849;28;20388;-80
2021/06/14 01:32:39;;;;;;;10.32;5.53;;;14.60;36.20;;;;;;5023505;28;20390;-80
2021/06/14 01:35:09;;;;;;;11.87;6.20;;;14.60;36.30;;;;;;5013348;28;20374;-80
2021/06/14 01:37:40;;;;;;;10.13;5.97;;;14.70;36.30;;;;;;5012452;28;20390;-79
2021/06/14 01:40:06;;;;;;;10.10;6.00;;;14.60;36.50;;;;;;5011543;28;20474;-79
2021/06/14 01:42:33;;;;;;;8.63;5.05;;;14.50;36.90;;;;;;4993726;28;20390;-79
2021/06/14 01:45:00;;;;;;;12.67;5.73;;;14.50;37.10;;;;;;5010744;28;20457;-78
2021/06/14 01:47:26;;;;;;;11.65;6.10;;;14.50;37.60;;;;;;5011440;28;20390;-80
2021/06/14 01:49:52;;;;;;;13.57;6.10;;;14.40;38.50;;;;;;5011612;28;20397;-79
2021/06/14 01:52:18;;;;;;;12.88;6.00;;;14.40;39.20;;;;;;5005274;28;20394;-83
2021/06/14 01:54:44;;;;;;;11.48;5.40;;;14.30;39.60;;;;;;5009517;28;20406;-81
2021/06/14 01:57:09;;;;;;;10.50;5.47;;;14.30;39.80;;;;;;4993705;28;20807;-79
2021/06/14 01:59:38;;;;;;;9.15;5.43;;;14.30;40.40;;;;;;5008398;28;20394;-80
2021/06/14 02:02:06;;;;;;;12.00;5.80;;;14.30;41.10;;;;;;5005511;28;20479;-78
2021/06/14 02:04:33;;;;;;;14.80;6.10;;;14.20;41.00;;;;;;4984037;28;20382;-78
2021/06/14 02:06:59;;;;;;;13.00;5.38;;;14.30;41.30;;;;;;4995997;28;20461;-80
2021/06/14 02:09:24;;;;;;;11.77;7.00;;;14.20;41.40;;;;;;5020626;28;20814;-79
2021/06/14 02:11:58;;;;;;;13.13;5.83;;;14.20;42.10;;;;;;5024904;28;20389;-81
2021/06/14 02:14:34;;;;;;;11.27;5.68;;;14.20;42.80;;;;;;5013664;28;20389;-81
2021/06/14 02:17:06;;;;;;;9.85;6.47;;;14.10;42.90;;;;;;5013583;28;20404;-81
2021/06/14 02:19:32;;;;;;;12.18;6.00;;;14.10;43.70;;;;;;5016801;28;20523;-81
2021/06/14 02:21:58;;;;;;;11.10;5.63;;;14.10;43.80;;;;;;5021506;28;20404;-79
2021/06/14 02:24:23;;;;;;;17.10;6.27;;;14.00;44.20;;;;;;5035446;28;20528;-78
2021/06/14 02:26:49;;;;;;;13.50;6.00;;;14.10;44.40;;;;;;5019976;28;20396;-78
2021/06/14 02:29:16;;;;;;;9.65;5.75;;;14.00;44.60;;;;;;5037466;28;20477;-76
2021/06/14 02:31:42;;;;;;;13.10;6.17;;;14.00;44.80;;;;;;5038243;28;20633;-77
2021/06/14 02:34:09;;;;;;;11.13;5.85;;;14.00;44.50;;;;;;5038322;28;20476;-77
2021/06/14 02:36:35;;;;;;;12.63;6.10;;;14.00;45.00;;;;;;5030233;28;20416;-77
2021/06/14 02:39:06;;;;;;;15.00;5.82;;;13.90;44.90;;;;;;5030787;28;20388;-78
2021/06/14 02:41:32;;;;;;;13.88;6.20;;;13.90;44.90;;;;;;5030137;28;20439;-78
2021/06/14 02:44:04;;;;;;;12.75;5.40;;;13.90;44.80;;;;;;5010567;28;20385;-79
2021/06/14 02:46:31;;;;;;;11.27;5.70;;;13.90;45.30;;;;;;5009144;28;20766;-79
2021/06/14 02:48:57;;;;;;;11.82;5.43;;;13.90;45.30;;;;;;5006540;28;20518;-81
2021/06/14 02:51:23;;;;;;;10.20;4.90;;;13.80;45.80;;;;;;5024429;28;20403;-78
2021/06/14 02:54:03;;;;;;;11.18;5.05;;;13.80;45.80;;;;;;5026735;28;20420;-81
2021/06/14 02:56:39;;;;;;;12.07;6.20;;;13.80;45.70;;;;;;5160816;27;20381;-80
2021/06/14 02:59:06;;;;;;;10.77;5.90;;;13.80;46.10;;;;;;5129343;28;20384;-79
2021/06/14 03:01:34;;;;;;;10.40;5.23;;;13.80;46.10;;;;;;5130044;28;20368;-79
2021/06/14 03:04:03;;;;;;;9.87;5.43;;;13.70;46.30;;;;;;5125855;28;20366;-81
2021/06/14 03:06:29;;;;;;;11.15;5.80;;;13.80;45.80;;;;;;5125399;28;20432;-81
2021/06/14 03:08:55;;;;;;;9.70;6.13;;;13.80;46.00;;;;;;5145769;22;20375;-73
2021/06/14 03:11:25;;;;;;;13.10;6.38;;;13.70;46.30;;;;;;5072635;28;20415;-73
2021/06/14 03:13:52;;;;;;;12.50;6.03;;;13.70;46.80;;;;;;5087835;28;20379;-74
2021/06/14 03:16:22;;;;;;;8.70;4.90;;;13.70;46.90;;;;;;5087963;28;20397;-75
2021/06/14 03:18:48;;;;;;;12.65;5.85;;;13.70;46.80;;;;;;5093675;28;20402;-75
2021/06/14 03:21:15;;;;;;;7.72;5.20;;;13.80;46.50;;;;;;5093145;28;20386;-74
2021/06/14 03:23:40;;;;;;;8.70;5.30;;;13.80;46.00;;;;;;5087734;28;20394;-74
2021/06/14 03:26:13;;;;;;;11.90;5.90;;;13.80;45.60;;;;;;5087858;28;20379;-74
2021/06/14 03:28:46;;;;;;;10.27;5.45;;;13.80;45.70;;;;;;5086357;28;20425;-74
2021/06/14 03:31:14;;;;;;;12.02;6.20;;;13.90;45.10;;;;;;5088066;28;20494;-73
2021/06/14 03:33:42;;;;;;;9.35;5.07;;;13.90;44.80;;;;;;5072220;28;20431;-74
2021/06/14 03:36:09;;;;;;;14.03;5.73;;;14.00;44.60;;;;;;5073536;28;20468;-75
2021/06/14 03:38:36;;;;;;;10.02;5.53;;;14.00;44.70;;;;;;5087936;28;20381;-74
2021/06/14 03:41:04;;;;;;;10.48;4.97;;;14.10;44.30;;;;;;5074366;28;20407;-73
2021/06/14 03:43:30;;;;;;;12.73;5.82;;;14.10;43.40;;;;;;5067535;28;20389;-73
2021/06/14 03:45:57;;;;;;;9.15;5.13;;;14.20;42.80;;;;;;5067281;28;20413;-73
2021/06/14 03:48:22;;;;;;;11.18;5.55;;;14.30;42.70;;;;;;5065910;28;20932;-75
2021/06/14 03:50:53;;;;;;;11.25;5.50;;;14.30;42.50;;;;;;5066814;28;20389;-73
2021/06/14 03:53:19;;;;;;;11.68;5.50;;;14.40;41.40;;;;;;5067096;28;20376;-74
2021/06/14 03:55:45;;;;;;;9.37;5.70;;;14.50;41.10;;;;;;5066615;28;20401;-73
2021/06/14 03:58:10;;;;;;;11.23;5.40;;;14.50;40.60;;;;;;5066847;28;20479;-74
2021/06/14 04:00:36;;;;;;;10.27;5.50;;;14.60;40.60;;;;;;5067135;28;20388;-73
2021/06/14 04:03:02;;;;;;;8.43;5.50;;;14.60;39.90;;;;;;5066610;28;20746;-74
2021/06/14 04:05:27;;;;;;;8.65;5.22;;;14.70;39.80;;;;;;5067632;28;20385;-74
2021/06/14 04:07:53;;;;;;;10.00;5.75;;;14.70;40.30;;;;;;5054898;28;20471;-74
2021/06/14 04:10:18;;;;;;;8.90;5.90;;;14.70;40.10;;;;;;5033816;28;20733;-74
2021/06/14 04:12:44;;;;;;;12.27;5.47;;;14.70;40.30;;;;;;5067797;28;20388;-74
2021/06/14 04:15:10;;;;;;;11.23;5.30;;;14.70;39.50;;;;;;5072317;28;20410;-75
2021/06/14 04:17:35;;;;;;;12.53;5.40;;;14.80;39.50;;;;;;5074666;28;20494;-76
2021/06/14 04:20:02;;;;;;;11.57;4.90;;;14.80;39.30;;;;;;5076712;28;20387;-75
2021/06/14 04:22:28;;;;;;;11.55;4.82;;;14.90;39.00;;;;;;5073685;28;20379;-76
2021/06/14 04:24:53;;;;;;;10.33;5.43;;;15.00;38.80;;;;;;5077269;28;20391;-76
2021/06/14 04:27:19;;;;;;;12.07;5.40;;;15.00;38.50;;;;;;5076139;28;20415;-74
2021/06/14 04:29:45;;;;;;;10.18;5.80;;;15.00;38.90;;;;;;5072735;28;20740;-74
2021/06/14 04:32:10;;;;;;;8.52;4.78;;;15.10;38.00;;;;;;5073781;28;20786;-75
2021/06/14 04:34:36;;;;;;;14.70;5.60;;;15.10;38.10;;;;;;5072945;28;20404;-76
2021/06/14 04:37:01;;;;;;;9.13;4.97;;;15.90;37.80;;;;;;5072643;28;20404;-74
2021/06/14 04:39:27;;;;;;;10.80;5.80;;;15.30;37.20;;;;;;5071333;28;20392;-75
2021/06/14 04:41:53;;;;;;;10.77;5.27;;;15.40;36.90;;;;;;5057384;28;20459;-75
2021/06/14 04:44:18;;;;;;;10.03;5.30;;;15.40;36.40;;;;;;5052489;28;20469;-75
2021/06/14 04:46:44;;;;;;;10.50;4.95;;;15.50;36.20;;;;;;5052106;28;20529;-76
2021/06/14 04:49:09;;;;;;;11.07;5.20;;;15.50;36.20;;;;;;5052668;28;20759;-75
2021/06/14 04:51:35;;;;;;;9.10;5.00;;;15.50;36.10;;;;;;5052492;28;20439;-75
2021/06/14 04:54:01;;;;;;;13.87;5.73;;;15.70;35.50;;;;;;5050806;28;20738;-75
2021/06/14 04:56:26;;;;;;;11.20;5.80;;;15.80;35.40;;;;;;5051969;28;20398;-77
2021/06/14 04:58:52;;;;;;;12.57;5.47;;;15.90;35.20;;;;;;5052289;28;20518;-75
2021/06/14 05:01:17;;;;;;;11.95;5.60;;;15.90;34.40;;;;;;5052437;28;20409;-75
2021/06/14 05:03:43;;;;;;;13.15;5.40;;;16.00;34.20;;;;;;5052135;28;20396;-76
2021/06/14 05:06:08;;;;;;;10.73;5.00;;;16.00;34.30;;;;;;5052571;28;20381;-76
2021/06/14 05:08:34;;;;;;;14.10;5.50;;;16.10;34.50;;;;;;5050707;28;20394;-76
2021/06/14 05:11:00;;;;;;;9.47;4.90;;;16.10;34.00;;;;;;5055043;28;20394;-76
2021/06/14 05:13:26;;;;;;;11.13;5.20;;;16.20;33.50;;;;;;5071539;28;20391;-75
2021/06/14 05:15:51;;;;;;;13.30;5.63;;;16.30;33.40;;;;;;5071815;28;20415;-74
2021/06/14 05:18:17;;;;;;;11.70;6.00;;;16.40;33.00;;;;;;5069459;28;20749;-74
2021/06/14 05:20:43;;;;;;;8.52;5.07;;;16.50;32.80;;;;;;5070322;28;20391;-75
2021/06/14 05:23:08;;;;;;;10.15;5.05;;;16.50;32.80;;;;;;5071709;28;20397;-75
2021/06/14 05:25:35;;;;;;;9.32;4.63;;;16.60;32.30;;;;;;5071834;28;20482;-76
2021/06/14 05:28:01;;;;;;;13.47;5.20;;;16.80;31.60;;;;;;5070493;28;20544;-75
2021/06/14 05:30:26;;;;;;;13.73;4.90;;;16.90;31.30;;;;;;5071635;28;20557;-77
2021/06/14 05:32:52;;;;;;;10.47;4.93;;;17.00;31.50;;;;;;5061851;28;20397;-76
2021/06/14 05:35:18;;;;;;;10.25;4.90;;;17.10;31.40;;;;;;5051183;28;20401;-74
2021/06/14 05:37:44;;;;;;;8.65;4.70;;;17.20;30.90;;;;;;5051039;28;20460;-74
2021/06/14 05:40:10;;;;;;;8.60;5.20;;;17.30;30.40;;;;;;5051289;28;20386;-77
2021/06/14 05:42:37;;;;;;;8.32;4.80;;;17.30;30.60;;;;;;5051038;28;20465;-76
2021/06/14 05:45:07;;;;;;;9.68;4.85;;;17.40;30.60;;;;;;5051950;28;20389;-76
2021/06/14 05:47:33;;;;;;;12.73;5.75;;;17.50;30.90;;;;;;5050443;28;20707;-77
2021/06/14 05:49:59;;;;;;;12.10;5.00;;;17.60;30.70;;;;;;5052054;28;20397;-76
2021/06/14 05:52:24;;;;;;;22.77;10.97;;;17.60;29.80;;;;;;5051855;28;20731;-76
2021/06/14 05:54:51;;;;;;;26.77;17.10;;;17.70;28.20;;;;;;5049859;28;20412;-75
2021/06/14 05:57:16;;;;;;;14.77;6.20;;;17.80;27.40;;;;;;5051265;28;20385;-75
2021/06/14 05:59:42;;;;;;;59.23;38.67;;;17.90;26.70;;;;;;5050666;28;20482;-75
2021/06/14 06:02:08;;;;;;;9.40;5.20;;;18.00;27.00;;;;;;5051246;28;20382;-75
2021/06/14 06:04:34;;;;;;;20.27;12.35;;;18.00;26.20;;;;;;5050483;28;20381;-74
2021/06/14 06:07:00;;;;;;;39.53;20.65;;;18.10;26.40;;;;;;5050672;28;20392;-75
2021/06/14 06:09:26;;;;;;;53.20;34.90;;;18.20;25.70;;;;;;5038178;28;20403;-75
2021/06/14 06:11:52;;;;;;;10.38;6.15;;;18.30;25.00;;;;;;5051259;28;20376;-74
2021/06/14 06:14:17;;;;;;;9.00;5.05;;;18.40;24.60;;;;;;5070806;28;20720;-75
2021/06/14 06:16:43;;;;;;;14.63;6.55;;;18.60;23.90;;;;;;5069228;28;20391;-75
2021/06/14 06:19:09;;;;;;;13.85;6.85;;;18.60;23.60;;;;;;5070537;28;20376;-77
2021/06/14 06:21:35;;;;;;;15.55;5.10;;;18.60;24.00;;;;;;5069274;28;20744;-76
2021/06/14 06:24:01;;;;;;;13.10;4.40;;;18.70;24.00;;;;;;5069187;28;20394;-76
2021/06/14 06:26:26;;;;;;;10.25;5.00;;;18.80;23.40;;;;;;5070631;28;20387;-77
2021/06/14 06:28:53;;;;;;;7.83;4.00;;;18.90;23.80;;;;;;5069232;28;20748;-76
2021/06/14 06:31:18;;;;;;;10.90;4.65;;;19.00;22.70;;;;;;5069467;28;20383;-75
2021/06/14 06:33:44;;;;;;;11.10;5.22;;;19.00;22.70;;;;;;5055052;28;20386;-74
2021/06/14 06:36:10;;;;;;;9.50;4.77;;;19.10;22.50;;;;;;5050478;28;20409;-77
2021/06/14 06:38:36;;;;;;;7.55;4.47;;;19.20;22.50;;;;;;5050285;28;20438;-77
2021/06/14 06:41:03;;;;;;;11.90;4.22;;;19.30;22.40;;;;;;5050610;28;20400;-75
2021/06/14 06:43:29;;;;;;;8.57;4.82;;;19.40;21.80;;;;;;5049874;28;20377;-76
2021/06/14 06:45:54;;;;;;;8.57;4.03;;;19.50;22.00;;;;;;5050377;28;20389;-75
2021/06/14 06:48:20;;;;;;;7.10;3.90;;;19.60;20.70;;;;;;5050832;28;20870;-76
2021/06/14 06:50:45;;;;;;;8.33;4.40;;;19.60;20.90;;;;;;5049585;28;20397;-76
2021/06/14 06:53:11;;;;;;;11.43;4.65;;;19.80;20.00;;;;;;5041927;28;20397;-76
2021/06/14 06:55:36;;;;;;;7.43;4.43;;;19.90;20.00;;;;;;5052418;28;20431;-74
2021/06/14 06:58:03;;;;;;;9.00;4.83;;;19.90;20.70;;;;;;5058283;28;20488;-79
2021/06/14 07:00:30;;;;;;;12.57;4.90;;;20.00;19.80;;;;;;5058137;28;20477;-77
2021/06/14 07:02:56;;;;;;;9.20;4.38;;;20.10;18.90;;;;;;5054922;28;20439;-79
2021/06/14 07:05:22;;;;;;;7.57;4.45;;;20.20;18.20;;;;;;5054982;28;20385;-78
2021/06/14 07:07:50;;;;;;;11.90;4.47;;;20.20;18.10;;;;;;5064131;28;20470;-77
2021/06/14 07:10:17;;;;;;;7.18;4.30;;;20.40;18.00;;;;;;5050859;28;20401;-76
2021/06/14 07:12:43;;;;;;;7.28;4.20;;;20.40;18.30;;;;;;5054554;28;20404;-76
2021/06/14 07:15:11;;;;;;;7.50;4.20;;;20.50;17.70;;;;;;5061323;28;20417;-77
2021/06/14 07:17:41;;;;;;;9.70;4.50;;;20.50;17.30;;;;;;5062001;28;20378;-76
2021/06/14 07:20:08;;;;;;;7.78;4.38;;;20.60;17.30;;;;;;5064294;28;20404;-76
2021/06/14 07:22:34;;;;;;;9.50;4.25;;;20.70;17.20;;;;;;5070924;28;20409;-76
2021/06/14 07:24:59;;;;;;;7.20;4.50;;;20.80;17.70;;;;;;5065291;28;20385;-78
2021/06/14 07:27:25;;;;;;;7.67;4.20;;;20.90;16.90;;;;;;5067234;28;20389;-76
2021/06/14 07:29:51;;;;;;;9.80;4.40;;;20.90;17.00;;;;;;5065954;28;20461;-76
2021/06/14 07:32:16;;;;;;;10.13;4.60;;;21.00;16.60;;;;;;5060722;28;20387;-77
2021/06/14 07:34:42;;;;;;;9.50;4.90;;;21.00;16.50;;;;;;5053441;28;20429;-75
2021/06/14 07:37:07;;;;;;;10.33;4.30;;;21.10;16.50;;;;;;5043606;28;21957;-76
2021/06/14 07:39:33;;;;;;;11.60;3.90;;;21.20;16.30;;;;;;5033719;28;20391;-76
2021/06/14 07:41:59;;;;;;;8.77;4.28;;;21.20;15.60;;;;;;5061902;28;20398;-76
2021/06/14 07:44:24;;;;;;;8.33;4.00;;;21.20;15.70;;;;;;5045802;28;20395;-77
2021/06/14 07:46:50;;;;;;;6.60;4.40;;;21.30;16.10;;;;;;5045039;28;20398;-77
2021/06/14 07:49:15;;;;;;;10.25;4.40;;;21.40;16.30;;;;;;5044452;28;20394;-77
2021/06/14 07:51:41;;;;;;;6.90;4.10;;;21.50;15.50;;;;;;5042390;28;20395;-76
2021/06/14 07:54:07;;;;;;;9.90;4.27;;;21.60;15.20;;;;;;5049378;28;20447;-76
2021/06/14 07:56:33;;;;;;;14.13;4.43;;;21.70;15.30;;;;;;5087601;28;20483;-75
2021/06/14 07:58:59;;;;;;;11.47;4.90;;;21.80;15.30;;;;;;5056150;28;20460;-75
2021/06/14 08:01:25;;;;;;;13.00;4.70;;;21.80;14.90;;;;;;5055315;28;20398;-75
2021/06/14 08:03:51;;;;;;;10.00;4.35;;;21.90;14.20;;;;;;5076817;28;20403;-78
2021/06/14 08:06:16;;;;;;;10.35;4.80;;;21.90;14.60;;;;;;5039960;28;20395;-78
2021/06/14 08:08:42;;;;;;;15.90;4.60;;;21.90;14.30;;;;;;5039506;28;20398;-76
2021/06/14 08:11:09;;;;;;;7.40;4.40;;;22.00;14.40;;;;;;5036521;28;20410;-76
2021/06/14 08:13:34;;;;;;;10.25;4.70;;;22.10;14.90;;;;;;5036983;28;20379;-76
2021/06/14 08:16:00;;;;;;;10.20;4.60;;;22.20;14.30;;;;;;5038828;28;20434;-76
2021/06/14 08:18:41;;;;;;;12.60;4.45;;;22.30;14.10;;;;;;5038044;28;20401;-76
2021/06/14 08:26:22;;;;;;;10.50;5.00;;;22.50;13.50;;;;;;5044112;28;20452;-77
2021/06/14 08:28:48;;;;;;;7.57;4.30;;;22.70;13.60;;;;;;5034340;28;20768;-76
2021/06/14 08:31:14;;;;;;;10.25;4.93;;;22.70;12.60;;;;;;5036607;28;20507;-78
2021/06/14 08:33:39;;;;;;;7.30;4.72;;;22.70;12.70;;;;;;5030853;28;20391;-73
2021/06/14 08:36:06;;;;;;;11.37;4.20;;;22.80;12.90;;;;;;5033058;28;20518;-75
2021/06/14 08:38:32;;;;;;;8.87;4.73;;;22.80;12.60;;;;;;5034350;28;20383;-74
2021/06/14 08:40:58;;;;;;;7.88;4.05;;;22.80;12.90;;;;;;5041012;28;20397;-76
2021/06/14 08:43:25;;;;;;;10.77;4.70;;;22.90;12.80;;;;;;5046530;28;20398;-76
2021/06/14 08:45:51;;;;;;;11.30;4.72;;;23.00;12.50;;;;;;5032930;28;20783;-75
2021/06/14 08:48:17;;;;;;;7.70;4.25;;;23.00;12.30;;;;;;5032183;28;20457;-76
2021/06/14 08:50:43;;;;;;;7.50;4.53;;;23.00;12.00;;;;;;5026992;28;20459;-76
2021/06/14 08:53:09;;;;;;;8.77;4.63;;;23.10;12.00;;;;;;5013163;28;20472;-76
2021/06/14 08:55:36;;;;;;;12.60;4.73;;;23.20;11.90;;;;;;5028840;28;20450;-74
2021/06/14 08:58:02;;;;;;;12.18;4.60;;;23.30;12.00;;;;;;5033503;28;20430;-76
2021/06/14 09:00:29;;;;;;;7.40;4.27;;;23.30;12.10;;;;;;5032933;28;20398;-76
2021/06/14 09:02:55;;;;;;;6.20;4.60;;;23.40;12.20;;;;;;5032138;28;20391;-77
2021/06/14 09:05:22;;;;;;;10.88;4.43;;;23.40;12.00;;;;;;5032241;28;20799;-74
2021/06/14 09:07:49;;;;;;;5.60;4.20;;;23.50;11.70;;;;;;5030315;28;20926;-75
2021/06/14 09:10:28;;;;;;;9.57;4.70;;;23.60;11.60;;;;;;5030941;28;20418;-73
2021/06/14 09:13:07;;;;;;;12.43;4.70;;;23.70;11.30;;;;;;5029790;28;20395;-74
2021/06/14 09:15:32;;;;;;;9.85;4.50;;;23.80;11.60;;;;;;5031043;28;20505;-75
2021/06/14 09:17:58;;;;;;;10.70;4.60;;;23.80;11.00;;;;;;5029730;28;20481;-74
2021/06/14 09:20:25;;;;;;;17.27;4.53;;;23.80;11.00;;;;;;5032331;28;20390;-73
2021/06/14 09:22:52;;;;;;;8.20;4.00;;;23.90;11.00;;;;;;5020920;28;20383;-73
2021/06/14 09:25:18;;;;;;;11.45;4.72;;;23.90;10.50;;;;;;5061140;28;20981;-74
2021/06/14 09:27:54;;;;;;;10.02;4.60;;;23.90;11.20;;;;;;5030705;28;20399;-73
2021/06/14 09:30:30;;;;;;;9.77;4.50;;;24.10;11.00;;;;;;5031476;28;20391;-76
2021/06/14 09:33:05;;;;;;;11.55;5.10;;;24.10;10.90;;;;;;5031655;28;20447;-76
2021/06/14 09:35:33;;;;;;;10.93;4.75;;;24.20;10.60;;;;;;5031391;28;20406;-75
2021/06/14 09:38:06;;;;;;;15.33;4.50;;;24.30;10.90;;;;;;5031766;28;20379;-74
2021/06/14 09:40:38;;;;;;;7.27;4.43;;;24.30;10.50;;;;;;5031497;28;20391;-75
2021/06/14 09:43:06;;;;;;;8.15;4.15;;;24.40;10.70;;;;;;5031566;28;20472;-75
2021/06/14 09:45:32;;;;;;;10.85;5.18;;;24.50;10.30;;;;;;5031042;28;20395;-74
2021/06/14 09:47:58;;;;;;;9.60;4.80;;;24.60;10.50;;;;;;5031223;28;20923;-76
2021/06/14 09:50:31;;;;;;;10.93;4.68;;;24.60;10.20;;;;;;5030911;28;20481;-76
2021/06/14 09:53:08;;;;;;;9.40;4.88;;;24.80;10.90;;;;;;5015652;28;20536;-75
2021/06/14 09:55:34;;;;;;;13.88;5.30;;;24.80;10.00;;;;;;5030262;28;20899;-75
2021/06/14 09:58:14;;;;;;;8.88;4.53;;;24.80;10.40;;;;;;5029986;28;20402;-75
2021/06/14 10:00:55;;;;;;;8.70;4.50;;;24.80;10.00;;;;;;5030459;28;20574;-75
2021/06/14 10:03:23;;;;;;;10.52;4.57;;;24.80;9.90;;;;;;5031015;28;20398;-75
2021/06/14 10:05:53;;;;;;;9.55;4.63;;;24.90;9.70;;;;;;5030356;28;20799;-76
2021/06/14 10:08:29;;;;;;;12.75;4.60;;;25.00;9.10;;;;;;5030756;28;20430;-75
2021/06/14 10:11:10;;;;;;;14.23;5.40;;;25.00;9.50;;;;;;5030789;28;20898;-75
2021/06/14 10:13:38;;;;;;;10.23;4.50;;;25.00;9.90;;;;;;5030276;28;20767;-75
2021/06/14 10:16:08;;;;;;;8.55;4.70;;;25.00;9.70;;;;;;5030016;28;20411;-75
2021/06/14 10:18:37;;;;;;;12.25;5.13;;;25.10;9.90;;;;;;5031024;28;20379;-75
2021/06/14 10:21:09;;;;;;;8.13;4.30;;;25.30;9.50;;;;;;5030995;28;20390;-76
2021/06/14 10:23:35;;;;;;;5.45;4.15;;;25.30;7.90;;;;;;5031159;28;20411;-75
2021/06/14 10:26:03;;;;;;;7.18;3.92;;;25.20;4.40;;;;;;5031324;28;20457;-76
2021/06/14 10:28:29;;;;;;;9.35;3.95;;;25.20;5.20;;;;;;5031102;28;20399;-76
2021/06/14 10:30:55;;;;;;;5.40;3.97;;;25.20;5.20;;;;;;5030651;28;20403;-76
2021/06/14 10:33:26;;;;;;;7.33;3.70;;;25.40;4.90;;;;;;5030270;28;20383;-76
2021/06/14 10:35:53;;;;;;;7.80;3.97;;;25.50;4.40;;;;;;5030218;28;20419;-74
2021/06/14 10:38:20;;;;;;;10.83;4.60;;;25.50;4.50;;;;;;5029062;28;20388;-75
2021/06/14 10:40:49;;;;;;;13.07;4.57;;;25.60;5.00;;;;;;5032928;28;20746;-75
2021/06/14 10:43:15;;;;;;;7.37;4.20;;;25.70;5.40;;;;;;5030160;28;20456;-75
2021/06/14 10:45:41;;;;;;;7.37;4.03;;;25.60;5.00;;;;;;5030102;28;20401;-74
2021/06/14 10:48:10;;;;;;;12.98;4.55;;;25.70;4.50;;;;;;5030120;28;20466;-75
2021/06/14 10:50:37;;;;;;;10.77;4.45;;;25.70;5.30;;;;;;5030076;28;20398;-78
2021/06/14 10:53:04;;;;;;;13.88;4.63;;;25.70;5.30;;;;;;5029856;28;20406;-77
2021/06/14 10:55:33;;;;;;;10.70;4.20;;;25.70;5.00;;;;;;5030187;28;20414;-77
2021/06/14 10:57:59;;;;;;;7.35;4.20;;;25.70;4.90;;;;;;5028330;28;20391;-76
2021/06/14 11:00:31;;;;;;;6.90;4.47;;;25.80;5.10;;;;;;5030371;28;20406;-77
2021/06/14 11:03:06;;;;;;;11.60;4.00;;;25.80;4.10;;;;;;5029987;28;20402;-78
2021/06/14 11:05:36;;;;;;;8.27;3.95;;;25.90;3.80;;;;;;5030173;28;20929;-76
2021/06/14 11:08:10;;;;;;;10.82;4.40;;;25.90;4.50;;;;;;5029814;28;20403;-77
2021/06/14 11:10:36;;;;;;;9.50;4.40;;;26.10;4.00;;;;;;5030145;28;20422;-76
2021/06/14 11:13:06;;;;;;;13.67;5.10;;;26.10;2.60;;;;;;5029043;28;20451;-76
2021/06/14 11:15:34;;;;;;;11.52;4.25;;;26.00;4.00;;;;;;5028339;28;20443;-76
2021/06/14 11:18:05;;;;;;;10.07;4.50;;;26.00;3.90;;;;;;5033078;28;20383;-76
2021/06/14 11:20:36;;;;;;;12.48;4.40;;;25.90;3.80;;;;;;5033706;28;20413;-76
2021/06/14 11:23:02;;;;;;;14.18;4.15;;;25.80;3.60;;;;;;5033535;28;20880;-75
2021/06/14 11:25:31;;;;;;;9.68;4.03;;;25.80;3.10;;;;;;5031940;28;20413;-76
2021/06/14 11:28:06;;;;;;;5.78;3.72;;;25.80;3.70;;;;;;5031945;28;20484;-72
2021/06/14 11:30:35;;;;;;;12.77;4.40;;;25.90;4.30;;;;;;5033397;28;20402;-72
2021/06/14 11:33:01;;;;;;;7.30;4.17;;;26.10;3.10;;;;;;5024261;28;20380;-73
2021/06/14 11:35:28;;;;;;;8.20;3.70;;;26.30;2.20;;;;;;5032563;28;20792;-73
2021/06/14 11:37:54;;;;;;;10.18;3.80;;;26.20;2.50;;;;;;5033652;28;20413;-74
2021/06/14 11:40:37;;;;;;;7.90;3.83;;;26.20;2.90;;;;;;5034903;28;20817;-75
2021/06/14 11:43:09;;;;;;;6.90;3.60;;;26.30;2.80;;;;;;5051894;28;20385;-73
2021/06/14 11:45:38;;;;;;;7.43;3.67;;;26.40;2.10;;;;;;5033992;28;20751;-74
2021/06/14 11:48:16;;;;;;;6.77;3.90;;;26.50;2.10;;;;;;5032816;28;20399;-74
2021/06/14 11:50:42;;;;;;;10.93;3.70;;;26.50;2.20;;;;;;5064691;28;20398;-74
2021/06/14 11:53:08;;;;;;;10.65;3.90;;;26.70;1.20;;;;;;5032898;28;20477;-74
2021/06/14 11:55:36;;;;;;;18.17;12.30;;;26.80;1.00;;;;;;5033413;28;20417;-73
2021/06/14 11:58:07;;;;;;;13.55;6.93;;;26.80;1.90;;;;;;5033116;28;20536;-73
2021/06/14 12:00:37;;;;;;;8.13;4.22;;;26.80;2.30;;;;;;5032581;28;20383;-74
2021/06/14 12:03:18;;;;;;;10.60;3.57;;;27.00;2.90;;;;;;5033525;28;20744;-74
2021/06/14 12:05:44;;;;;;;9.30;4.10;;;27.10;2.70;;;;;;5035697;28;20383;-74
2021/06/14 12:08:10;;;;;;;10.15;4.10;;;27.20;2.80;;;;;;5068880;28;20899;-74
2021/06/14 12:10:37;;;;;;;10.68;4.07;;;27.20;2.90;;;;;;5038185;28;20458;-75
2021/06/14 12:13:06;;;;;;;9.70;4.00;;;27.10;2.70;;;;;;5036202;28;20397;-78
2021/06/14 12:15:33;;;;;;;11.55;4.20;;;27.20;3.20;;;;;;5032683;28;20493;-75
2021/06/14 12:17:58;;;;;;;7.88;4.32;;;27.40;4.20;;;;;;5034004;28;20382;-74
2021/06/14 12:20:27;;;;;;;9.10;3.93;;;27.40;3.30;;;;;;5032080;28;20399;-73
2021/06/14 12:23:14;;;;;;;11.10;4.10;;;27.60;3.60;;;;;;5030632;28;20403;-76
2021/06/14 12:25:45;;;;;;;10.73;4.07;;;27.60;3.10;;;;;;5029954;28;20403;-75
2021/06/14 12:28:14;;;;;;;7.88;4.00;;;27.70;3.50;;;;;;5033386;28;20489;-75
2021/06/14 12:30:59;;;;;;;8.10;3.92;;;27.70;3.80;;;;;;5035531;28;20387;-75
2021/06/14 12:33:30;;;;;;;10.27;4.30;;;27.90;2.80;;;;;;5033441;28;20399;-77
2021/06/14 12:35:56;;;;;;;7.78;4.07;;;27.80;1.80;;;;;;5032693;28;20411;-77
2021/06/14 12:38:22;;;;;;;5.57;3.60;;;27.70;1.50;;;;;;5031725;28;20881;-76
2021/06/14 12:40:48;;;;;;;6.78;3.80;;;27.60;1.70;;;;;;5038309;28;20393;-78
2021/06/14 12:43:14;;;;;;;59.95;35.10;;;27.60;1.60;;;;;;5052258;28;20377;-77
2021/06/14 12:45:41;;;;;;;10.40;4.80;;;27.70;2.20;;;;;;5052002;28;20431;-77
2021/06/14 12:48:12;;;;;;;8.03;3.90;;;27.80;1.30;;;;;;5052192;28;20381;-76
2021/06/14 12:50:57;;;;;;;7.22;4.07;;;27.80;1.70;;;;;;5045058;28;20482;-78
2021/06/14 12:53:25;;;;;;;6.77;3.80;;;27.90;2.20;;;;;;5032397;28;20387;-77
2021/06/14 12:55:55;;;;;;;10.77;3.90;;;28.00;2.90;;;;;;5032057;28;20922;-76